createdAt,value
2019-03-15T05:34:16.284Z,5.42
2019-03-15T05:36:52.125Z,13.68
2019-03-15T05:39:28.194Z,7.28
2019-03-15T05:42:04.134Z,7.22
2019-03-15T05:44:39.903Z,8.58
2019-03-15T05:47:15.741Z,6.62
2019-03-15T05:49:52.017Z,7.53
2019-03-15T05:52:28.076Z,12.70
2019-03-15T05:55:08.182Z,5.83
2019-03-15T05:57:43.974Z,10.93
2019-03-15T06:00:19.934Z,9.33
2019-03-15T06:02:55.798Z,8.75
2019-03-15T06:05:32.152Z,9.60
2019-03-15T06:08:07.963Z,14.15
2019-03-15T06:10:44.274Z,9.03
2019-03-15T06:13:20.043Z,8.75
2019-03-15T06:15:55.799Z,10.90
2019-03-15T06:18:31.585Z,11.10
2019-03-15T06:21:07.384Z,6.80
2019-03-15T06:23:43.147Z,10.05
2019-03-15T06:26:18.986Z,8.90
2019-03-15T06:28:54.946Z,5.40
2019-03-15T06:31:30.709Z,8.93
2019-03-15T06:34:06.453Z,10.70
2019-03-15T06:36:42.305Z,6.60
2019-03-15T06:39:18.369Z,9.58
2019-03-15T06:41:54.838Z,13.20
2019-03-15T06:44:30.686Z,18.02
2019-03-15T06:47:06.525Z,21.12
2019-03-15T06:49:42.299Z,19.23
2019-03-15T06:52:18.154Z,14.58
2019-03-15T06:54:53.990Z,16.05
2019-03-15T06:57:30.778Z,11.95
2019-03-15T07:00:09.803Z,10.98
2019-03-15T07:02:46.203Z,10.32
2019-03-15T07:05:22.223Z,12.23
2019-03-15T07:07:58.067Z,9.25
2019-03-15T07:10:33.924Z,9.03
2019-03-15T07:13:09.784Z,6.58
2019-03-15T07:15:45.553Z,8.20
2019-03-15T07:18:21.904Z,6.67
2019-03-15T07:20:57.759Z,7.83
2019-03-15T07:23:33.654Z,11.55
2019-03-15T07:26:09.599Z,12.55
2019-03-15T07:28:45.520Z,11.10
2019-03-15T07:31:21.589Z,11.95
2019-03-15T07:33:57.443Z,9.80
2019-03-15T07:36:33.214Z,6.17
2019-03-15T07:39:08.970Z,9.30
2019-03-15T07:41:44.740Z,8.25
2019-03-15T07:44:20.521Z,9.05
2019-03-15T07:46:56.259Z,14.00
2019-03-15T07:49:32.336Z,7.87
2019-03-15T07:52:09.443Z,9.28
2019-03-15T07:54:45.188Z,7.10
2019-03-15T07:57:22.488Z,10.15
2019-03-15T07:59:58.325Z,10.05
2019-03-15T08:02:34.085Z,11.15
2019-03-15T08:05:10.010Z,10.70
2019-03-15T08:07:46.027Z,8.48
2019-03-15T08:10:21.854Z,6.50
2019-03-15T08:12:57.675Z,12.13
2019-03-15T08:15:33.667Z,10.00
2019-03-15T08:18:09.759Z,10.08
2019-03-15T08:20:45.575Z,9.15
2019-03-15T08:23:21.429Z,10.05
2019-03-15T08:25:57.296Z,6.03
2019-03-15T08:28:33.143Z,8.63
2019-03-15T08:31:08.994Z,5.40
2019-03-15T08:33:44.848Z,9.80
2019-03-15T08:36:20.685Z,6.42
2019-03-15T08:38:56.540Z,5.33
2019-03-15T08:41:32.402Z,6.05
2019-03-15T08:44:08.251Z,3.60
2019-03-15T08:46:44.222Z,7.10
2019-03-15T08:49:20.134Z,7.60
2019-03-15T08:52:03.750Z,4.17
2019-03-15T08:54:33.404Z,3.98
2019-03-15T08:57:10.495Z,5.92
2019-03-15T08:59:54.167Z,7.28
2019-03-15T09:02:23.765Z,5.25
2019-03-15T09:04:59.565Z,4.33
2019-03-15T09:07:35.451Z,5.83
2019-03-15T09:10:22.440Z,7.53
2019-03-15T09:12:50.533Z,5.35
2019-03-15T09:15:26.226Z,6.75
2019-03-15T09:18:02.035Z,5.35
2019-03-15T09:20:37.799Z,5.40
2019-03-15T09:23:14.659Z,7.58
2019-03-15T09:25:50.438Z,12.30
2019-03-15T09:28:26.382Z,10.68
2019-03-15T09:31:02.130Z,8.05
2019-03-15T09:33:37.906Z,10.18
2019-03-15T09:36:14.096Z,8.50
2019-03-15T09:38:49.899Z,13.20
2019-03-15T09:41:32.055Z,14.33
2019-03-15T09:44:03.252Z,15.78
2019-03-15T09:46:39.002Z,12.68
2019-03-15T09:49:14.801Z,11.88
2019-03-15T09:51:51.626Z,12.05
2019-03-15T09:54:27.487Z,12.78
2019-03-15T09:57:03.841Z,10.75
2019-03-15T09:59:39.794Z,9.18
2019-03-15T10:02:15.625Z,8.65
2019-03-15T10:04:52.095Z,8.90
2019-03-15T10:07:37.701Z,8.58
2019-03-15T10:10:13.955Z,11.53
2019-03-15T10:12:46.654Z,8.63
2019-03-15T10:15:22.493Z,9.58
2019-03-15T10:17:58.419Z,15.63
2019-03-15T10:20:34.510Z,8.68
2019-03-15T10:23:10.267Z,9.08
2019-03-15T10:25:49.818Z,50.63
2019-03-15T10:28:23.563Z,10.25
2019-03-15T10:30:59.339Z,8.73
2019-03-15T10:33:49.523Z,11.18
2019-03-15T10:36:13.674Z,11.18
2019-03-15T10:38:49.431Z,10.95
2019-03-15T10:41:25.232Z,11.83
2019-03-15T10:44:04.052Z,13.35
2019-03-15T10:46:40.521Z,8.43
2019-03-15T10:49:16.796Z,12.53
2019-03-15T10:51:53.061Z,8.80
2019-03-15T10:54:28.778Z,7.47
2019-03-15T10:57:04.524Z,8.08
2019-03-15T10:59:40.318Z,7.80
2019-03-15T11:02:16.168Z,8.88
2019-03-15T11:04:52.232Z,9.53
2019-03-15T11:07:29.631Z,11.85
2019-03-15T11:10:07.455Z,10.93
2019-03-15T11:12:44.594Z,12.37
2019-03-15T11:15:20.445Z,10.10
2019-03-15T11:17:56.552Z,12.37
2019-03-15T11:20:32.245Z,8.63
2019-03-15T11:23:08.137Z,11.40
2019-03-15T11:25:43.843Z,11.65
2019-03-15T11:28:19.730Z,7.55
2019-03-15T11:30:55.480Z,18.70
2019-03-15T11:33:31.324Z,17.80
2019-03-15T11:36:07.092Z,27.73
2019-03-15T11:38:42.963Z,11.18
2019-03-15T11:41:18.806Z,16.02
2019-03-15T11:43:54.640Z,11.05
2019-03-15T11:46:30.512Z,9.53
2019-03-15T11:49:06.819Z,11.48
2019-03-15T11:51:42.841Z,19.23
2019-03-15T11:54:18.556Z,14.78
2019-03-15T11:56:54.316Z,16.48
2019-03-15T11:59:30.123Z,8.78
2019-03-15T12:02:05.948Z,11.63
2019-03-15T12:04:41.679Z,8.43
2019-03-15T12:07:17.975Z,7.08
2019-03-15T12:09:53.769Z,11.12
2019-03-15T12:12:29.658Z,8.08
2019-03-15T12:15:08.538Z,10.63
2019-03-15T12:17:44.441Z,8.65
2019-03-15T12:20:20.491Z,10.20
2019-03-15T12:22:56.215Z,11.30
2019-03-15T12:25:32.102Z,7.35
2019-03-15T12:28:07.957Z,8.43
2019-03-15T12:30:43.799Z,6.95
2019-03-15T12:33:19.652Z,8.68
2019-03-15T12:35:55.516Z,6.58
2019-03-15T12:38:31.364Z,7.85
2019-03-15T12:41:07.320Z,8.25
2019-03-15T12:43:43.097Z,7.22
2019-03-15T12:46:18.870Z,7.97
2019-03-15T12:48:54.823Z,8.45
2019-03-15T12:51:32.336Z,11.70
2019-03-15T12:54:08.229Z,10.48
2019-03-15T12:56:53.601Z,10.08
2019-03-15T12:59:21.681Z,8.98
2019-03-15T13:01:57.551Z,11.03
2019-03-15T13:04:33.376Z,8.85
2019-03-15T13:07:09.346Z,6.67
2019-03-15T13:09:45.137Z,10.35
2019-03-15T13:12:21.314Z,9.38
2019-03-15T13:14:57.221Z,12.55
2019-03-15T13:17:33.363Z,8.98
2019-03-15T13:20:11.681Z,10.55
2019-03-15T13:22:48.436Z,10.28
2019-03-15T13:25:24.208Z,9.00
2019-03-15T13:28:00.380Z,10.80
2019-03-15T13:30:36.513Z,9.08
2019-03-15T13:33:20.309Z,10.00
2019-03-15T13:35:49.845Z,11.35
2019-03-15T13:38:25.726Z,7.87
2019-03-15T13:41:01.894Z,10.90
2019-03-15T13:43:37.731Z,22.77
2019-03-15T13:46:13.874Z,11.53
2019-03-15T13:48:49.765Z,10.28
2019-03-15T13:51:25.621Z,8.68
2019-03-15T13:54:01.419Z,10.23
2019-03-15T13:56:37.244Z,10.68
2019-03-15T13:59:13.337Z,10.00
2019-03-15T14:01:49.355Z,12.78
2019-03-15T14:04:25.114Z,9.48
2019-03-15T14:07:00.945Z,9.40
2019-03-15T14:09:36.806Z,13.62
2019-03-15T14:12:12.959Z,12.25
2019-03-15T14:14:48.684Z,9.75
2019-03-15T14:17:24.490Z,11.88
2019-03-15T14:20:00.384Z,10.38
2019-03-15T14:22:36.146Z,18.75
2019-03-15T14:25:18.235Z,28.67
2019-03-15T14:27:54.126Z,7.55
2019-03-15T14:30:29.880Z,18.40
2019-03-15T14:33:05.694Z,21.68
2019-03-15T14:35:41.687Z,11.22
2019-03-15T14:38:17.848Z,7.53
2019-03-15T14:40:53.708Z,14.47
2019-03-15T14:43:29.939Z,14.73
2019-03-15T14:46:05.890Z,13.93
2019-03-15T14:48:41.784Z,15.25
2019-03-15T14:51:17.621Z,13.68
2019-03-15T14:53:53.662Z,22.40
2019-03-15T14:56:30.165Z,10.90
2019-03-15T14:59:06.108Z,16.25
2019-03-15T15:01:42.861Z,12.05
2019-03-15T15:04:18.650Z,30.05
2019-03-15T15:06:54.497Z,19.12
2019-03-15T15:09:30.762Z,16.02
2019-03-15T15:12:07.188Z,19.85
2019-03-15T15:14:42.978Z,15.23
2019-03-15T15:17:19.039Z,16.40
2019-03-15T15:19:54.910Z,16.82
2019-03-15T15:22:30.702Z,17.57
2019-03-15T15:25:09.187Z,12.43
2019-03-15T15:27:45.022Z,11.43
2019-03-15T15:30:21.809Z,22.82
2019-03-15T15:32:57.541Z,14.25
2019-03-15T15:35:33.273Z,13.28
2019-03-15T15:38:09.011Z,17.27
2019-03-15T15:40:45.795Z,16.87
2019-03-15T15:43:21.677Z,18.40
2019-03-15T15:45:57.447Z,31.00
2019-03-15T15:48:33.243Z,28.83
2019-03-15T15:51:09.170Z,33.67
2019-03-15T15:53:44.985Z,35.90
2019-03-15T15:56:20.722Z,29.63
2019-03-15T15:58:56.591Z,16.97
2019-03-15T16:01:32.440Z,40.28
2019-03-15T16:04:08.243Z,42.70
2019-03-15T16:06:44.471Z,42.80
2019-03-15T16:09:20.279Z,31.60
2019-03-15T16:11:56.220Z,41.68
2019-03-15T16:14:32.002Z,16.60
2019-03-15T16:17:07.942Z,13.60
2019-03-15T16:19:43.827Z,13.18
2019-03-15T16:22:19.865Z,12.23
2019-03-15T16:24:56.543Z,10.30
2019-03-15T16:27:32.371Z,16.12
2019-03-15T16:30:19.325Z,16.55
2019-03-15T16:32:55.182Z,12.73
2019-03-15T16:35:31.150Z,16.73
2019-03-15T16:38:07.691Z,15.00
2019-03-15T16:40:43.582Z,10.13
2019-03-15T16:43:19.764Z,15.68
2019-03-15T16:45:55.628Z,14.15
2019-03-15T16:48:32.051Z,11.00
2019-03-15T16:51:19.089Z,11.33
2019-03-15T16:53:45.271Z,14.03
2019-03-15T16:56:21.008Z,11.83
2019-03-15T16:58:56.817Z,21.05
2019-03-15T17:01:32.647Z,51.25
2019-03-15T17:04:08.864Z,61.37
2019-03-15T17:06:44.757Z,59.40
2019-03-15T17:09:20.603Z,64.62
2019-03-15T17:11:56.437Z,63.58
2019-03-15T17:14:32.260Z,50.35
2019-03-15T17:17:08.037Z,42.43
2019-03-15T17:19:43.833Z,28.15
2019-03-15T17:22:19.601Z,52.60
2019-03-15T17:24:55.384Z,29.18
2019-03-15T17:27:32.315Z,35.52
2019-03-15T17:30:11.080Z,38.28
2019-03-15T17:32:46.848Z,50.50
2019-03-15T17:35:22.581Z,64.00
2019-03-15T17:37:58.387Z,42.23
2019-03-15T17:40:34.153Z,29.92
2019-03-15T17:43:09.976Z,42.83
2019-03-15T17:45:45.802Z,26.42
2019-03-15T17:48:21.711Z,26.35
2019-03-15T17:50:57.570Z,25.92
2019-03-15T17:53:33.607Z,20.20
2019-03-15T17:56:09.539Z,27.98
2019-03-15T17:58:45.428Z,25.85
2019-03-15T18:01:21.282Z,39.03
2019-03-15T18:03:57.270Z,32.00
2019-03-15T18:06:33.200Z,29.87
2019-03-15T18:09:09.069Z,33.65
2019-03-15T18:11:44.906Z,32.83
2019-03-15T18:14:20.817Z,32.63
2019-03-15T18:16:56.911Z,26.23
2019-03-15T18:19:32.828Z,36.85
2019-03-15T18:22:08.738Z,35.15
2019-03-15T18:24:44.481Z,31.90
2019-03-15T18:27:20.335Z,35.38
2019-03-15T18:29:57.313Z,30.45
2019-03-15T18:32:33.185Z,26.50
2019-03-15T18:35:10.321Z,29.35
2019-03-15T18:37:46.207Z,25.62
2019-03-15T18:40:21.959Z,28.53
2019-03-15T18:42:57.914Z,26.35
2019-03-15T18:45:33.671Z,26.80
2019-03-15T18:48:09.523Z,20.43
2019-03-15T18:50:45.879Z,40.20
2019-03-15T18:53:22.154Z,30.88
2019-03-15T18:55:58.528Z,50.95
2019-03-15T18:58:34.484Z,44.27
2019-03-15T19:01:10.395Z,25.77
2019-03-15T19:03:46.285Z,22.32
2019-03-15T19:06:22.029Z,22.02
2019-03-15T19:08:58.089Z,20.57
2019-03-15T19:11:34.209Z,25.35
2019-03-15T19:14:10.048Z,17.35
2019-03-15T19:16:46.464Z,16.90
2019-03-15T19:19:22.537Z,19.48
2019-03-15T19:21:58.407Z,25.43
2019-03-15T19:24:34.295Z,18.60
2019-03-15T19:27:10.087Z,27.90
2019-03-15T19:29:53.749Z,17.82
2019-03-15T19:32:23.555Z,16.10
2019-03-15T19:35:00.157Z,15.48
2019-03-15T19:37:35.983Z,126.65
2019-03-15T19:40:16.754Z,169.77
2019-03-15T19:42:52.636Z,48.55
2019-03-15T19:45:28.442Z,20.37
2019-03-15T19:48:04.170Z,15.45
2019-03-15T19:50:40.134Z,14.18
2019-03-15T19:53:20.294Z,19.50
2019-03-15T19:55:56.164Z,19.95
2019-03-15T19:58:31.995Z,16.40
2019-03-15T20:01:08.024Z,23.18
2019-03-15T20:03:44.565Z,18.00
2019-03-15T20:06:20.712Z,21.33
2019-03-15T20:08:56.771Z,28.07
2019-03-15T20:11:32.617Z,24.70
2019-03-15T20:14:08.435Z,24.77
2019-03-15T20:16:45.670Z,19.45
2019-03-15T20:19:21.510Z,13.60
2019-03-15T20:21:57.366Z,11.78
2019-03-15T20:24:36.531Z,7.65
2019-03-15T20:27:10.933Z,9.10
2019-03-15T20:29:46.840Z,11.00
2019-03-15T20:32:22.655Z,10.13
2019-03-15T20:34:58.436Z,19.90
2019-03-15T20:37:34.248Z,12.15
2019-03-15T20:40:11.834Z,7.90
2019-03-15T20:42:47.762Z,11.48
2019-03-15T20:45:25.951Z,13.18
2019-03-15T20:48:02.400Z,17.57
2019-03-15T20:50:46.606Z,13.22
2019-03-15T20:53:15.953Z,7.53
2019-03-15T20:55:52.062Z,10.00
2019-03-15T20:58:27.976Z,13.95
2019-03-15T21:01:03.778Z,15.13
2019-03-15T21:03:39.536Z,19.27
2019-03-15T21:06:15.378Z,39.48
2019-03-15T21:08:51.336Z,34.10
2019-03-15T21:11:27.301Z,19.32
2019-03-15T21:14:03.151Z,21.65
2019-03-15T21:16:40.238Z,14.20
2019-03-15T21:19:16.082Z,17.67
2019-03-15T21:21:51.933Z,20.32
2019-03-15T21:24:28.110Z,57.75
2019-03-15T21:27:03.962Z,51.75
2019-03-15T21:29:40.118Z,25.50
2019-03-15T21:32:16.378Z,23.42
2019-03-15T21:34:52.342Z,61.60
2019-03-15T21:37:29.790Z,21.60
2019-03-15T21:40:08.864Z,15.38
2019-03-15T21:42:44.710Z,13.03
2019-03-15T21:45:20.963Z,7.87
2019-03-15T21:47:56.916Z,11.00
2019-03-15T21:50:33.198Z,11.18
2019-03-15T21:53:09.252Z,9.83
2019-03-15T21:55:45.098Z,10.48
2019-03-15T21:58:20.967Z,12.40
2019-03-15T22:01:02.571Z,10.32
2019-03-15T22:03:34.807Z,7.50
2019-03-15T22:06:10.673Z,8.90
2019-03-15T22:08:46.390Z,7.00
2019-03-15T22:11:22.179Z,8.28
2019-03-15T22:13:59.052Z,12.33
2019-03-15T22:16:34.902Z,13.60
2019-03-15T22:19:10.870Z,7.78
2019-03-15T22:21:47.322Z,5.75
2019-03-15T22:24:23.087Z,4.75
2019-03-15T22:27:00.007Z,5.08
2019-03-15T22:29:35.746Z,4.37
2019-03-15T22:32:11.558Z,3.83
2019-03-15T22:34:47.323Z,6.08
2019-03-15T22:37:23.532Z,11.68
2019-03-15T22:39:59.420Z,4.70
2019-03-15T22:42:35.699Z,3.42
2019-03-15T22:45:12.583Z,4.25
2019-03-15T22:47:51.365Z,8.38
2019-03-15T22:50:26.032Z,5.55
2019-03-15T22:53:01.776Z,6.90
2019-03-15T22:55:37.635Z,10.05
2019-03-15T22:58:13.489Z,5.83
2019-03-15T23:00:49.948Z,2.92
2019-03-15T23:03:26.165Z,5.55
2019-03-15T23:06:01.964Z,8.60
2019-03-15T23:08:38.025Z,5.33
2019-03-15T23:11:13.886Z,7.53
2019-03-15T23:13:49.730Z,3.58
2019-03-15T23:16:25.479Z,3.20
2019-03-15T23:19:01.250Z,3.70
2019-03-15T23:21:37.095Z,4.92
2019-03-15T23:24:13.754Z,6.85
2019-03-15T23:26:49.520Z,3.20
2019-03-15T23:29:25.372Z,6.00
2019-03-15T23:32:01.738Z,3.60
2019-03-15T23:34:38.606Z,5.95
2019-03-15T23:37:14.464Z,9.03
2019-03-15T23:39:50.321Z,4.25
2019-03-15T23:42:26.188Z,2.72
2019-03-15T23:45:02.027Z,4.85
2019-03-15T23:47:37.771Z,4.17
2019-03-15T23:50:15.172Z,5.35
2019-03-15T23:52:50.913Z,4.83
2019-03-15T23:55:27.283Z,5.33
2019-03-15T23:58:03.155Z,7.17
